Time;durP1;ratioP1;P1;durP2;ratioP2;P2;SDS_P1;SDS_P2;PMS_P1;PMS_P2;Temp;Humidity;BMP_temperature;BMP_pressure;BME280_temperature;BME280_humidity;BME280_pressure;Samples;Min_cycle;Max_cycle;Signal;HPM_P1;HPM_P2
2023/07/22 00:00:22;;;;;;;5.50;2.08;;;;;;;24.70;37.22;98618.09;5018092;28;20064;-71
2023/07/22 00:02:48;;;;;;;2.55;1.80;;;;;;;24.72;37.16;98626.78;5002049;28;20106;-71
2023/07/22 00:05:14;;;;;;;4.35;1.85;;;;;;;24.64;37.09;98634.63;5001615;28;20132;-71
2023/07/22 00:07:40;;;;;;;5.97;1.70;;;;;;;24.79;36.74;98623.78;5002167;28;20143;-71
2023/07/22 00:10:10;;;;;;;2.50;1.63;;;;;;;25.02;36.81;98620.47;5001768;28;20476;-72
2023/07/22 00:12:36;;;;;;;2.13;1.42;;;;;;;24.60;37.35;98622.72;5001730;28;20339;-72
2023/07/22 00:15:03;;;;;;;4.00;1.50;;;;;;;24.70;37.12;98620.00;5002437;28;20543;-71
2023/07/22 00:17:32;;;;;;;6.88;1.67;;;;;;;24.69;37.37;98618.38;5020056;28;20051;-71
2023/07/22 00:19:58;;;;;;;2.55;1.70;;;;;;;24.24;38.14;98623.78;5003086;28;20045;-71
2023/07/22 00:22:26;;;;;;;5.20;1.75;;;;;;;24.40;37.61;98626.22;5018148;28;20551;-71
2023/07/22 00:24:52;;;;;;;3.92;1.55;;;;;;;24.41;37.76;98627.03;5018073;28;20139;-71
2023/07/22 00:27:18;;;;;;;5.63;1.63;;;;;;;24.50;37.36;98628.13;5001797;28;20045;-71
2023/07/22 00:29:44;;;;;;;5.18;1.73;;;;;;;24.50;37.52;98628.94;5001610;28;20072;-75
2023/07/22 00:32:10;;;;;;;4.57;1.90;;;;;;;24.52;37.37;98632.22;5018370;28;20086;-71
2023/07/22 00:34:38;;;;;;;1.98;1.65;;;;;;;24.51;37.19;98635.16;5005069;28;20398;-72
2023/07/22 00:37:04;;;;;;;2.78;1.40;;;;;;;24.51;37.28;98635.16;5005488;28;20086;-71
2023/07/22 00:39:29;;;;;;;7.03;1.80;;;;;;;24.48;37.34;98633.81;5005167;28;20072;-71
2023/07/22 00:41:55;;;;;;;3.17;1.80;;;;;;;24.39;37.73;98638.16;5005055;28;20044;-71
2023/07/22 00:44:22;;;;;;;8.00;1.75;;;;;;;24.46;37.54;98633.28;5005613;28;20045;-71
2023/07/22 00:46:48;;;;;;;3.30;1.80;;;;;;;24.59;37.67;98637.34;5006151;28;20060;-71
2023/07/22 00:49:14;;;;;;;4.20;1.70;;;;;;;24.54;37.58;98635.44;5005875;28;20040;-71
2023/07/22 00:51:40;;;;;;;5.70;1.52;;;;;;;24.47;37.54;98640.34;5005529;28;20063;-72
2023/07/22 00:54:06;;;;;;;2.30;1.50;;;;;;;24.49;37.68;98634.66;5004682;28;20045;-71
2023/07/22 00:56:36;;;;;;;5.95;1.42;;;;;;;24.72;37.63;98637.63;5006480;28;20075;-71
2023/07/22 00:59:02;;;;;;;3.03;1.70;;;;;;;24.19;38.11;98645.47;5007020;28;20103;-72
2023/07/22 01:01:28;;;;;;;6.75;1.80;;;;;;;24.37;37.59;98639.53;5005568;28;20098;-72
2023/07/22 01:03:54;;;;;;;4.88;1.50;;;;;;;24.30;38.23;98647.94;5004855;28;20053;-71
2023/07/22 01:06:21;;;;;;;2.88;1.63;;;;;;;24.40;38.29;98650.66;4989789;28;20114;-71
2023/07/22 01:08:48;;;;;;;7.13;1.50;;;;;;;24.48;37.80;98655.53;5006141;28;20044;-72
2023/07/22 01:11:14;;;;;;;4.30;1.67;;;;;;;24.22;38.05;98648.47;5022183;28;20064;-72
2023/07/22 01:13:40;;;;;;;3.53;1.65;;;;;;;23.98;38.49;98649.25;5022633;28;20101;-72
2023/07/22 01:16:06;;;;;;;3.42;1.80;;;;;;;24.39;38.26;98653.63;5005320;28;20048;-72
2023/07/22 01:18:33;;;;;;;2.83;1.40;;;;;;;24.34;38.55;98654.44;5020948;28;20095;-72
2023/07/22 01:20:59;;;;;;;3.20;1.50;;;;;;;24.26;38.15;98654.19;5004911;28;20450;-72
2023/07/22 01:23:25;;;;;;;6.05;1.45;;;;;;;24.52;38.04;98659.38;5020558;28;20454;-72
2023/07/22 01:25:51;;;;;;;2.45;1.42;;;;;;;24.26;38.36;98652.25;5004065;28;20048;-71
2023/07/22 01:28:17;;;;;;;3.35;1.40;;;;;;;23.89;38.55;98651.63;5020381;28;20395;-74
2023/07/22 01:30:43;;;;;;;4.03;1.60;;;;;;;24.15;38.75;98666.09;5004089;28;20072;-71
2023/07/22 01:33:09;;;;;;;5.75;1.50;;;;;;;24.28;38.27;98665.59;5004309;28;20040;-72
2023/07/22 01:35:37;;;;;;;6.18;1.48;;;;;;;24.41;38.47;98667.75;5004329;28;20051;-71
2023/07/22 01:38:04;;;;;;;3.60;1.50;;;;;;;24.16;38.44;98679.38;5003919;28;20041;-71
2023/07/22 01:40:31;;;;;;;4.03;1.67;;;;;;;24.22;38.39;98678.31;5004731;28;20041;-71
2023/07/22 01:42:56;;;;;;;2.92;1.60;;;;;;;24.20;38.60;98679.69;5004228;28;20045;-71
2023/07/22 01:45:22;;;;;;;5.13;1.50;;;;;;;24.27;38.23;98685.66;5003193;28;20114;-71
2023/07/22 01:47:48;;;;;;;1.98;1.50;;;;;;;24.24;38.06;98678.88;5003905;28;20445;-74
2023/07/22 01:50:15;;;;;;;3.10;1.40;;;;;;;24.23;38.28;98679.13;5020516;28;20048;-71
2023/07/22 01:52:41;;;;;;;3.83;1.50;;;;;;;24.34;38.10;98680.78;5003354;28;20075;-71
2023/07/22 01:55:10;;;;;;;2.67;1.48;;;;;;;24.36;38.37;98689.47;5004038;28;20049;-71
2023/07/22 01:57:37;;;;;;;4.93;1.50;;;;;;;24.34;38.21;98686.22;5020307;28;20049;-71
2023/07/22 02:00:06;;;;;;;4.80;1.70;;;;;;;24.29;38.92;98688.91;5003456;28;20068;-72
2023/07/22 02:02:39;;;;;;;3.33;1.40;;;;;;;24.29;38.33;98683.50;5037042;28;20045;-71
2023/07/22 02:05:06;;;;;;;10.50;1.73;;;;;;;24.46;38.12;98689.47;5003453;28;20106;-71
2023/07/22 02:07:32;;;;;;;8.45;1.83;;;;;;;24.39;38.28;98691.63;5003363;28;20071;-73
2023/07/22 02:09:58;;;;;;;3.53;1.60;;;;;;;24.46;38.08;98694.91;5003358;28;20061;-71
2023/07/22 02:12:24;;;;;;;4.38;1.63;;;;;;;24.38;38.09;98682.69;5019865;28;20139;-72
2023/07/22 02:14:53;;;;;;;8.00;1.77;;;;;;;24.73;37.91;98695.50;5020201;28;20436;-71
2023/07/22 02:17:20;;;;;;;7.13;1.70;;;;;;;24.41;38.01;98689.47;5002276;28;20049;-72
2023/07/22 02:20:08;;;;;;;2.05;1.45;;;;;;;24.46;38.22;98692.19;4996606;28;20061;-72
2023/07/22 02:22:36;;;;;;;4.07;1.67;;;;;;;24.34;38.16;98695.16;4986590;28;20053;-71
2023/07/22 02:25:04;;;;;;;3.03;1.40;;;;;;;24.39;38.46;98691.63;4985989;28;20296;-73
2023/07/22 02:27:30;;;;;;;2.45;1.42;;;;;;;24.23;38.44;98693.50;4985983;28;20048;-72
2023/07/22 02:29:56;;;;;;;2.75;1.42;;;;;;;24.40;38.08;98696.78;4985222;28;20487;-72
2023/07/22 02:32:22;;;;;;;3.38;1.40;;;;;;;24.50;37.88;98701.41;5001769;28;20043;-72
2023/07/22 02:34:48;;;;;;;1.95;1.35;;;;;;;24.46;38.19;98697.63;4969868;28;20125;-72
2023/07/22 02:37:14;;;;;;;5.55;1.75;;;;;;;24.43;38.37;98695.47;4985320;28;20490;-72
2023/07/22 02:39:40;;;;;;;3.78;1.63;;;;;;;24.48;38.32;98704.41;4985626;28;20060;-71
2023/07/22 02:42:06;;;;;;;8.65;1.95;;;;;;;24.71;37.90;98703.09;4986632;28;20071;-72
2023/07/22 02:44:32;;;;;;;3.70;1.50;;;;;;;24.63;38.01;98707.13;4987269;28;20049;-72
2023/07/22 02:46:58;;;;;;;5.18;1.70;;;;;;;24.55;37.87;98699.53;4986903;28;20056;-72
2023/07/22 02:49:24;;;;;;;2.25;1.50;;;;;;;24.37;38.56;98697.34;4985325;28;20060;-72
2023/07/22 02:51:50;;;;;;;5.05;1.55;;;;;;;24.38;38.34;98703.59;4985659;28;20134;-72
2023/07/22 02:54:16;;;;;;;3.28;1.83;;;;;;;24.59;38.47;98700.63;4988326;28;20053;-71
2023/07/22 02:56:43;;;;;;;4.68;1.80;;;;;;;24.48;38.78;98703.56;5001233;28;20041;-72
2023/07/22 02:59:09;;;;;;;3.00;1.80;;;;;;;24.55;39.02;98701.44;5002401;28;20048;-71
2023/07/22 03:01:35;;;;;;;4.93;1.50;;;;;;;24.39;38.93;98699.78;5002198;28;20498;-71
2023/07/22 03:04:02;;;;;;;4.15;1.73;;;;;;;24.60;38.44;98702.25;5002148;28;20048;-72
2023/07/22 03:06:28;;;;;;;6.07;1.88;;;;;;;24.59;38.49;98699.78;5002177;28;20047;-72
2023/07/22 03:08:54;;;;;;;4.45;1.52;;;;;;;24.46;38.68;98700.34;5001809;28;20437;-72
2023/07/22 03:11:22;;;;;;;2.42;1.50;;;;;;;24.54;38.64;98702.53;5002189;28;20125;-72
2023/07/22 03:13:49;;;;;;;3.53;1.50;;;;;;;24.66;38.60;98706.63;5002244;28;20044;-72
2023/07/22 03:16:15;;;;;;;4.35;1.58;;;;;;;24.55;38.79;98699.53;5018360;28;20049;-72
2023/07/22 03:18:42;;;;;;;5.63;1.80;;;;;;;24.65;38.70;98710.44;5002201;28;20413;-72
2023/07/22 03:21:09;;;;;;;4.40;1.42;;;;;;;24.54;38.83;98706.03;5002080;28;20511;-72
2023/07/22 03:23:34;;;;;;;3.33;1.48;;;;;;;24.53;38.84;98701.69;5001991;28;20041;-71
2023/07/22 03:26:01;;;;;;;6.53;1.70;;;;;;;24.89;38.73;98699.84;5034543;28;20391;-71
2023/07/22 03:28:27;;;;;;;5.80;1.77;;;;;;;24.94;38.24;98715.31;5001559;28;20064;-72
2023/07/22 03:30:52;;;;;;;2.22;1.30;;;;;;;24.88;38.61;98724.56;5002173;28;20091;-72
2023/07/22 03:33:19;;;;;;;3.60;1.23;;;;;;;25.09;37.96;98721.56;5018725;28;20578;-71
2023/07/22 03:35:45;;;;;;;1.83;1.30;;;;;;;25.30;37.96;98719.59;5002034;28;20048;-72
2023/07/22 03:38:12;;;;;;;2.10;1.10;;;;;;;25.25;37.73;98720.44;5001727;28;20045;-72
2023/07/22 03:40:38;;;;;;;6.50;1.30;;;;;;;25.33;37.56;98724.53;5001361;28;20045;-72
2023/07/22 03:43:05;;;;;;;4.25;1.27;;;;;;;25.65;37.46;98739.41;5001533;28;20053;-71
2023/07/22 03:45:31;;;;;;;2.92;1.50;;;;;;;25.55;37.38;98736.72;5001744;28;20044;-72
2023/07/22 03:47:58;;;;;;;2.85;1.20;;;;;;;25.68;37.17;98733.41;5001745;28;20060;-72
2023/07/22 03:50:26;;;;;;;3.15;1.33;;;;;;;25.69;36.84;98740.50;5001661;28;20037;-72
2023/07/22 03:52:52;;;;;;;5.57;1.20;;;;;;;25.73;36.82;98738.00;5018000;28;20071;-72
2023/07/22 03:55:19;;;;;;;3.35;1.25;;;;;;;25.79;36.88;98742.34;5001617;28;20187;-71
2023/07/22 03:57:45;;;;;;;3.20;1.40;;;;;;;25.73;36.59;98749.72;5001959;28;20099;-72
2023/07/22 04:00:12;;;;;;;2.13;1.20;;;;;;;25.90;36.53;98752.94;5001859;28;20045;-72
2023/07/22 04:02:39;;;;;;;3.25;1.25;;;;;;;25.81;36.79;98748.31;5019097;28;20045;-72
2023/07/22 04:05:07;;;;;;;3.38;1.40;;;;;;;26.06;36.39;98751.78;5002238;28;20037;-72
2023/07/22 04:07:34;;;;;;;2.03;1.40;;;;;;;26.10;36.58;98752.88;5002815;28;20102;-72
2023/07/22 04:10:00;;;;;;;4.35;1.40;;;;;;;25.97;36.53;98745.25;5005788;28;20053;-72
2023/07/22 04:12:26;;;;;;;6.97;1.50;;;;;;;26.12;36.35;98747.94;5005753;28;20037;-72
2023/07/22 04:14:52;;;;;;;2.50;1.40;;;;;;;26.28;36.01;98741.34;5006659;28;20529;-72
2023/07/22 04:17:19;;;;;;;4.55;1.65;;;;;;;26.28;35.88;98743.22;5007511;28;20047;-72
2023/07/22 04:19:46;;;;;;;3.45;1.30;;;;;;;26.18;35.74;98751.47;5006305;28;20037;-72
2023/07/22 04:22:14;;;;;;;6.38;1.40;;;;;;;26.35;35.58;98750.00;5005926;28;20040;-72
2023/07/22 04:24:41;;;;;;;4.43;1.25;;;;;;;26.54;35.13;98754.81;5005292;28;20049;-72
2023/07/22 04:27:07;;;;;;;3.22;1.23;;;;;;;26.48;35.21;98750.50;5021653;28;20037;-72
2023/07/22 04:29:35;;;;;;;1.40;1.17;;;;;;;26.89;35.03;98755.41;5005420;28;20049;-72
2023/07/22 04:32:06;;;;;;;2.85;1.20;;;;;;;26.95;34.65;98761.63;5005933;28;20048;-72
2023/07/22 04:34:32;;;;;;;3.55;2.30;;;;;;;26.87;34.57;98757.59;5021373;28;20107;-72
2023/07/22 04:36:58;;;;;;;2.72;1.35;;;;;;;26.76;34.58;98763.38;5005155;28;20056;-76
2023/07/22 04:39:24;;;;;;;3.72;1.40;;;;;;;26.88;34.58;98766.59;5005111;28;20110;-72
2023/07/22 04:41:50;;;;;;;3.17;1.10;;;;;;;26.80;35.20;98757.09;5004875;28;20131;-72
2023/07/22 04:44:17;;;;;;;4.78;1.42;;;;;;;26.89;35.30;98774.47;5004791;28;20044;-72
2023/07/22 04:46:43;;;;;;;3.75;1.10;;;;;;;27.06;34.33;98766.69;5021298;28;20055;-72
2023/07/22 04:49:09;;;;;;;3.45;1.00;;;;;;;26.80;34.24;98765.25;5021301;28;20144;-72
2023/07/22 04:51:35;;;;;;;3.13;1.10;;;;;;;26.94;34.49;98777.13;5004734;28;20538;-72
2023/07/22 04:54:02;;;;;;;1.65;1.00;;;;;;;27.17;34.05;98770.16;5004421;28;20037;-72
2023/07/22 04:56:28;;;;;;;6.53;1.20;;;;;;;27.23;33.77;98782.66;5006208;28;20040;-72
2023/07/22 04:58:54;;;;;;;3.90;1.10;;;;;;;27.23;33.23;98777.97;5023006;28;20059;-72
2023/07/22 05:01:20;;;;;;;5.43;0.95;;;;;;;27.41;33.65;98774.59;5021529;28;20376;-72
2023/07/22 05:03:46;;;;;;;3.13;1.25;;;;;;;27.54;33.13;98776.63;5021388;28;20044;-72
2023/07/22 05:06:13;;;;;;;3.03;1.00;;;;;;;27.63;32.73;98783.09;5004805;28;20049;-72
2023/07/22 05:08:39;;;;;;;2.55;2.17;;;;;;;27.76;32.53;98776.94;5004158;28;20045;-72
2023/07/22 05:11:07;;;;;;;3.33;0.95;;;;;;;28.10;32.62;98767.84;5004388;28;20087;-72
2023/07/22 05:13:33;;;;;;;6.72;1.10;;;;;;;27.98;32.51;98773.72;5005006;28;20151;-72
2023/07/22 05:15:59;;;;;;;3.58;1.30;;;;;;;28.00;32.52;98780.50;5021075;28;20135;-72
2023/07/22 05:18:25;;;;;;;4.57;1.10;;;;;;;28.15;32.41;98775.97;5004456;28;20033;-72
2023/07/22 05:20:51;;;;;;;2.53;1.20;;;;;;;28.36;32.00;98775.41;5003400;28;20076;-72
2023/07/22 05:23:17;;;;;;;2.03;1.10;;;;;;;28.36;32.01;98774.59;5004324;28;20055;-72
2023/07/22 05:25:42;;;;;;;4.18;1.50;;;;;;;28.35;31.79;98778.44;5003638;28;20049;-72
2023/07/22 05:28:09;;;;;;;2.22;1.10;;;;;;;28.35;31.50;98784.72;5004421;28;20051;-73
2023/07/22 05:30:36;;;;;;;5.57;1.00;;;;;;;28.46;31.66;98778.00;5020451;28;20056;-72
2023/07/22 05:33:02;;;;;;;3.63;1.17;;;;;;;28.58;31.23;98775.69;5003880;28;20474;-73
2023/07/22 05:35:28;;;;;;;5.20;1.00;;;;;;;28.71;31.33;98771.38;5004662;28;20045;-72
2023/07/22 05:37:55;;;;;;;7.35;1.50;;;;;;;28.53;31.48;98762.09;4999424;28;20057;-72
2023/07/22 05:40:21;;;;;;;3.72;1.38;;;;;;;28.80;31.07;98775.09;4967501;28;20476;-72
2023/07/22 05:42:47;;;;;;;1.60;1.10;;;;;;;28.81;30.63;98779.44;4967107;28;20472;-72
2023/07/22 05:45:16;;;;;;;3.53;1.02;;;;;;;29.02;30.57;98759.69;4982970;28;20095;-72
2023/07/22 05:47:42;;;;;;;5.57;1.00;;;;;;;29.17;29.85;98764.91;4983329;28;20054;-72
2023/07/22 05:50:08;;;;;;;3.45;1.20;;;;;;;29.14;30.25;98760.06;4967864;28;20084;-72
2023/07/22 05:52:36;;;;;;;3.45;1.05;;;;;;;29.06;29.35;98763.47;4983647;28;20156;-72
2023/07/22 05:55:02;;;;;;;1.10;0.77;;;;;;;29.31;29.16;98765.78;4983359;28;20041;-75
2023/07/22 05:57:31;;;;;;;1.65;0.90;;;;;;;29.54;29.10;98764.00;4967708;28;20507;-72
2023/07/22 06:00:04;;;;;;;1.92;1.13;;;;;;;29.85;28.61;98761.50;4982793;28;20049;-72
2023/07/22 06:02:54;;;;;;;3.40;1.00;;;;;;;30.13;28.69;98768.59;5031839;28;20077;-73
2023/07/22 06:05:20;;;;;;;1.95;1.05;;;;;;;29.88;28.50;98766.38;4995717;28;20053;-72
2023/07/22 06:07:50;;;;;;;2.78;1.00;;;;;;;30.37;28.39;98761.00;4980839;28;20046;-72
2023/07/22 06:10:18;;;;;;;3.72;1.10;;;;;;;30.13;28.45;98766.69;4999694;28;20049;-72
2023/07/22 06:12:51;;;;;;;1.52;1.00;;;;;;;30.10;28.25;98771.94;4999659;28;20041;-73
2023/07/22 06:15:20;;;;;;;2.13;0.88;;;;;;;29.98;28.17;98769.75;4998868;28;20045;-72
2023/07/22 06:17:46;;;;;;;2.08;1.00;;;;;;;30.00;28.36;98762.00;5014599;28;20127;-72
2023/07/22 06:20:12;;;;;;;1.67;1.00;;;;;;;30.20;28.12;98769.06;4998237;28;20152;-73
2023/07/22 06:22:38;;;;;;;3.70;1.00;;;;;;;29.80;28.83;98762.41;5014965;28;20547;-72
2023/07/22 06:25:06;;;;;;;3.83;1.00;;;;;;;29.78;28.79;98755.63;4982250;28;20143;-73
2023/07/22 06:27:34;;;;;;;1.23;1.00;;;;;;;30.05;28.76;98753.69;4998405;28;20060;-72
2023/07/22 06:30:01;;;;;;;2.42;0.93;;;;;;;29.78;28.62;98759.19;4982312;28;20049;-72
2023/07/22 06:32:35;;;;;;;1.60;0.80;;;;;;;29.76;28.89;98747.72;5000113;28;20139;-72
2023/07/22 06:35:02;;;;;;;3.88;1.00;;;;;;;30.01;28.24;98758.19;4975593;28;20070;-72
2023/07/22 06:37:31;;;;;;;7.80;1.00;;;;;;;30.58;27.94;98762.16;4979609;28;20141;-72
2023/07/22 06:39:57;;;;;;;4.35;0.80;;;;;;;30.50;28.08;98762.91;4970235;28;20068;-72
2023/07/22 06:42:23;;;;;;;2.42;0.98;;;;;;;30.33;27.95;98758.06;4998069;28;20523;-72
2023/07/22 06:44:49;;;;;;;5.95;1.10;;;;;;;30.26;28.13;98762.34;4998046;28;20068;-72
2023/07/22 06:47:19;;;;;;;3.97;1.10;;;;;;;30.54;27.35;98761.97;5015436;28;20049;-73
2023/07/22 06:49:45;;;;;;;2.93;1.10;;;;;;;30.62;27.06;98760.41;4998363;28;20042;-72
2023/07/22 06:52:12;;;;;;;5.03;1.00;;;;;;;30.96;26.83;98767.03;5015850;28;20049;-73
2023/07/22 06:54:40;;;;;;;4.07;1.35;;;;;;;31.70;26.20;98764.59;4999379;28;20061;-72
2023/07/22 06:57:06;;;;;;;1.98;1.30;;;;;;;31.55;26.62;98765.00;4999335;28;20041;-77
2023/07/22 06:59:34;;;;;;;2.00;1.08;;;;;;;31.71;25.47;98752.47;5014655;28;20049;-73
2023/07/22 07:02:00;;;;;;;3.90;1.02;;;;;;;31.70;26.03;98762.66;4982038;28;20084;-72
2023/07/22 07:04:27;;;;;;;2.60;1.20;;;;;;;31.65;25.48;98764.72;5014761;28;20053;-72
2023/07/22 07:06:54;;;;;;;4.13;1.00;;;;;;;32.21;25.03;98764.81;4982016;28;20057;-72
2023/07/22 07:09:21;;;;;;;1.75;1.10;;;;;;;32.52;24.76;98762.81;4981522;28;20064;-72
2023/07/22 07:11:46;;;;;;;3.75;1.05;;;;;;;32.54;24.79;98753.09;4997654;28;20492;-72
2023/07/22 07:14:12;;;;;;;4.50;1.00;;;;;;;31.85;23.78;98755.97;4997380;28;20224;-72
2023/07/22 07:16:39;;;;;;;1.50;0.90;;;;;;;32.27;23.65;98752.53;4997641;28;20057;-72
2023/07/22 07:19:06;;;;;;;7.50;0.90;;;;;;;32.36;23.28;98756.13;4997527;28;20057;-72
2023/07/22 07:21:32;;;;;;;2.05;0.93;;;;;;;32.88;23.10;98746.81;4942835;28;20590;-71
2023/07/22 07:23:59;;;;;;;1.23;0.82;;;;;;;32.20;22.84;98763.16;4958310;28;20389;-72
2023/07/22 07:26:25;;;;;;;3.80;0.90;;;;;;;32.88;23.09;98754.25;4964659;28;20143;-73
2023/07/22 07:28:52;;;;;;;2.40;1.17;;;;;;;33.95;22.30;98746.38;4997242;28;20096;-72
2023/07/22 07:31:20;;;;;;;5.18;1.25;;;;;;;34.06;22.01;98760.59;5013317;28;20107;-72
2023/07/22 07:33:46;;;;;;;2.35;1.00;;;;;;;34.73;21.30;98769.63;4997264;28;20045;-72
2023/07/22 07:36:13;;;;;;;4.25;1.75;;;;;;;35.74;20.62;98771.72;4952631;28;20100;-72
2023/07/22 07:38:39;;;;;;;4.38;1.00;;;;;;;36.59;18.80;98787.22;4959230;28;20050;-73
2023/07/22 07:41:11;;;;;;;4.63;1.20;;;;;;;37.59;18.21;98773.13;4974837;28;20124;-74
2023/07/22 07:43:39;;;;;;;1.80;0.95;;;;;;;39.05;16.89;98773.50;4962008;28;20436;-73
2023/07/22 07:46:25;;;;;;;1.73;0.90;;;;;;;40.05;15.75;98765.50;4962935;28;20121;-74
2023/07/22 07:49:01;;;;;;;2.40;0.90;;;;;;;41.26;14.27;98775.22;4978339;28;20085;-73
2023/07/22 07:51:29;;;;;;;12.05;1.33;;;;;;;42.28;13.60;98775.41;4983311;28;20141;-73
2023/07/22 07:53:58;;;;;;;2.25;0.60;;;;;;;43.27;12.96;98771.22;4988521;28;20057;-73
2023/07/22 07:56:24;;;;;;;4.57;0.80;;;;;;;41.98;13.39;98755.25;4972855;28;20037;-73
2023/07/22 07:58:53;;;;;;;3.10;1.10;;;;;;;42.87;13.46;98766.66;4988931;28;20064;-73
2023/07/22 08:01:19;;;;;;;2.45;0.80;;;;;;;43.47;12.32;98758.47;5020860;28;20124;-73
2023/07/22 08:03:45;;;;;;;3.13;1.00;;;;;;;44.92;11.33;98763.63;4988060;28;20411;-73
2023/07/22 08:06:12;;;;;;;1.10;0.60;;;;;;;44.06;12.19;98760.56;5004675;28;20052;-73
2023/07/22 08:08:38;;;;;;;2.58;1.33;;;;;;;42.27;13.37;98757.88;5004623;28;20040;-73
2023/07/22 08:11:09;;;;;;;3.60;0.98;;;;;;;43.39;12.14;98766.06;5005637;28;20064;-73
2023/07/22 08:13:37;;;;;;;4.85;1.05;;;;;;;42.72;12.73;98757.38;5006339;28;20139;-73
2023/07/22 08:16:08;;;;;;;5.32;1.05;;;;;;;41.18;13.71;98759.59;5006394;28;20055;-73
2023/07/22 08:18:35;;;;;;;2.20;0.70;;;;;;;41.70;13.15;98758.59;5022541;28;20037;-73
2023/07/22 08:21:03;;;;;;;3.10;0.68;;;;;;;41.20;13.01;98754.44;5005278;28;20049;-73
2023/07/22 08:23:29;;;;;;;2.72;1.02;;;;;;;41.24;13.78;98757.28;5005037;28;20436;-73
2023/07/22 08:25:55;;;;;;;1.42;0.80;;;;;;;40.61;13.86;98748.06;5004828;28;20048;-73
2023/07/22 08:28:22;;;;;;;3.05;1.00;;;;;;;42.91;12.61;98764.66;5004951;28;20109;-73
2023/07/22 08:30:50;;;;;;;1.27;0.77;;;;;;;44.02;11.58;98765.38;5005031;28;20077;-73
2023/07/22 08:33:16;;;;;;;1.20;0.95;;;;;;;40.99;13.36;98782.03;5004799;28;20490;-73
2023/07/22 08:35:42;;;;;;;1.08;0.70;;;;;;;40.83;13.51;98759.13;5021453;28;20463;-74
2023/07/22 08:38:09;;;;;;;5.45;1.00;;;;;;;42.16;12.97;98739.44;4984315;28;20474;-73
2023/07/22 08:40:36;;;;;;;2.13;0.80;;;;;;;44.78;11.68;98772.09;4980537;28;20372;-75
2023/07/22 08:43:03;;;;;;;3.03;0.70;;;;;;;45.81;10.47;98773.22;4980760;28;20058;-73
2023/07/22 08:45:32;;;;;;;0.98;0.60;;;;;;;45.59;10.79;98777.34;4980534;28;20555;-73
2023/07/22 08:47:59;;;;;;;1.07;0.70;;;;;;;44.38;11.43;98775.38;4980876;28;20074;-73
2023/07/22 08:50:30;;;;;;;3.42;0.80;;;;;;;43.64;11.78;98768.94;4980566;28;20053;-72
2023/07/22 08:52:59;;;;;;;2.45;0.68;;;;;;;42.86;11.88;98763.06;4980307;28;20061;-73
2023/07/22 08:55:25;;;;;;;2.05;0.80;;;;;;;41.03;13.43;98777.31;4979500;28;20132;-73
2023/07/22 08:57:51;;;;;;;6.40;0.80;;;;;;;40.42;13.66;98756.53;4948241;28;20157;-73
2023/07/22 09:00:18;;;;;;;2.88;0.85;;;;;;;39.68;14.69;98767.22;4964472;28;20124;-72
2023/07/22 09:02:44;;;;;;;5.35;0.80;;;;;;;37.52;16.04;98753.53;4996556;28;20045;-73
2023/07/22 09:05:11;;;;;;;1.73;0.88;;;;;;;38.55;15.41;98754.97;4980093;28;20093;-72
2023/07/22 09:07:38;;;;;;;4.78;0.80;;;;;;;42.16;13.14;98756.19;4980313;28;20148;-72
2023/07/22 09:10:07;;;;;;;3.97;1.35;;;;;;;44.54;11.15;98762.53;4982352;28;20399;-73
2023/07/22 09:12:39;;;;;;;5.15;0.95;;;;;;;45.08;10.75;98766.00;5003702;28;20056;-73
2023/07/22 09:15:10;;;;;;;3.63;0.70;;;;;;;45.62;10.66;98754.91;5004967;28;20040;-74
2023/07/22 09:17:38;;;;;;;1.70;0.88;;;;;;;45.31;10.24;98761.47;5004185;28;20048;-73
2023/07/22 09:20:05;;;;;;;3.85;0.70;;;;;;;45.40;10.21;98763.84;5003513;28;20040;-73
2023/07/22 09:22:32;;;;;;;2.97;0.82;;;;;;;45.92;10.35;98771.91;5003856;28;20071;-73
2023/07/22 09:25:22;;;;;;;5.63;1.38;;;;;;;46.94;9.65;98761.72;5003657;28;20480;-73
2023/07/22 09:27:51;;;;;;;2.80;1.25;;;;;;;47.91;9.24;98761.56;5017394;28;20186;-73
2023/07/22 09:30:22;;;;;;;0.93;0.63;;;;;;;45.92;9.63;98768.31;5004052;28;20041;-73
2023/07/22 09:32:48;;;;;;;3.55;0.90;;;;;;;44.94;10.28;98752.00;5003602;28;20055;-73
2023/07/22 09:35:14;;;;;;;4.80;0.70;;;;;;;40.89;13.35;98754.84;5003584;28;20126;-76
2023/07/22 09:37:40;;;;;;;2.05;0.75;;;;;;;41.27;13.04;98745.38;5003476;28;20128;-73
2023/07/22 09:40:18;;;;;;;3.42;1.20;;;;;;;44.51;11.29;98762.53;5003339;28;20052;-73
2023/07/22 09:42:47;;;;;;;2.80;0.77;;;;;;;45.17;10.70;98757.94;5004118;28;20518;-74
2023/07/22 09:45:13;;;;;;;4.15;0.70;;;;;;;46.44;9.62;98760.66;5003533;28;20501;-73
2023/07/22 09:47:50;;;;;;;0.98;0.80;;;;;;;47.89;9.05;98766.03;5003234;28;20040;-73
2023/07/22 09:50:17;;;;;;;2.05;1.00;;;;;;;48.65;8.68;98777.19;5003370;28;20071;-74
2023/07/22 09:52:53;;;;;;;2.45;1.23;;;;;;;49.27;7.53;98781.97;5003385;28;20094;-74
2023/07/22 09:55:28;;;;;;;6.30;0.90;;;;;;;47.82;8.01;98754.88;5001582;28;20143;-73
2023/07/22 09:58:03;;;;;;;2.22;1.10;;;;;;;46.82;8.99;98773.47;4987955;28;20474;-73
2023/07/22 10:00:31;;;;;;;1.98;0.77;;;;;;;47.80;8.71;98774.19;5003347;28;20459;-73
2023/07/22 10:03:02;;;;;;;1.40;0.90;;;;;;;48.69;8.03;98775.09;5018625;28;20078;-72
2023/07/22 10:05:30;;;;;;;2.03;0.80;;;;;;;48.19;8.20;98765.94;5017922;28;20053;-72
2023/07/22 10:07:58;;;;;;;1.50;1.02;;;;;;;48.25;8.20;98755.75;4985895;28;20041;-73
2023/07/22 10:10:34;;;;;;;2.93;0.93;;;;;;;47.30;8.58;98760.84;4985457;28;20482;-73
2023/07/22 10:13:02;;;;;;;4.68;0.88;;;;;;;45.93;8.88;98761.50;5002011;28;20053;-73
2023/07/22 10:15:35;;;;;;;4.50;1.50;;;;;;;47.50;8.74;98769.41;5002135;28;20103;-73
2023/07/22 10:18:05;;;;;;;1.58;0.65;;;;;;;46.71;8.64;98767.19;4980944;28;20084;-73
2023/07/22 10:20:34;;;;;;;2.72;0.73;;;;;;;45.25;9.75;98762.31;4981442;28;20053;-73
2023/07/22 10:23:01;;;;;;;1.00;0.80;;;;;;;46.48;9.08;98762.19;4940689;28;20050;-73
2023/07/22 10:25:28;;;;;;;1.60;0.80;;;;;;;47.54;8.49;98775.78;4924485;28;20058;-73
2023/07/22 10:27:54;;;;;;;1.65;0.70;;;;;;;47.81;8.46;98767.38;4940147;28;20059;-73
2023/07/22 10:30:20;;;;;;;1.80;0.80;;;;;;;48.77;7.66;98776.53;4924593;28;20039;-74
2023/07/22 10:32:50;;;;;;;3.42;0.88;;;;;;;47.84;8.31;98767.28;4921247;29;20055;-73
2023/07/22 10:35:31;;;;;;;4.68;0.90;;;;;;;47.79;8.26;98764.97;4905623;29;20066;-73
2023/07/22 10:38:12;;;;;;;0.98;0.73;;;;;;;45.29;8.54;98768.69;4921047;28;20078;-73
2023/07/22 10:40:52;;;;;;;2.03;0.60;;;;;;;43.20;10.27;98755.22;4906757;29;20058;-72
2023/07/22 10:43:33;;;;;;;4.07;1.10;;;;;;;40.09;13.11;98754.41;4921112;29;20051;-76
2023/07/22 10:46:10;;;;;;;3.33;1.35;;;;;;;40.11;13.52;98752.88;4905678;28;20106;-73
2023/07/22 10:48:38;;;;;;;3.20;1.20;;;;;;;42.36;11.92;98751.97;4911681;28;20073;-72
2023/07/22 10:51:10;;;;;;;2.42;1.00;;;;;;;43.83;11.16;98765.75;4904925;29;20051;-73
2023/07/22 10:53:43;;;;;;;1.52;0.93;;;;;;;42.64;11.32;98768.91;4932790;28;20047;-73
2023/07/22 10:56:30;;;;;;;3.25;0.80;;;;;;;42.61;11.62;98764.09;4955999;28;20058;-73
2023/07/22 10:59:00;;;;;;;3.13;1.00;;;;;;;43.88;10.64;98757.78;4949219;28;20543;-73
2023/07/22 11:01:35;;;;;;;5.32;1.20;;;;;;;43.94;10.53;98750.59;4973749;28;20054;-73
2023/07/22 11:04:30;;;;;;;3.78;1.00;;;;;;;43.31;11.21;98755.25;4981626;28;20045;-73
2023/07/22 11:07:04;;;;;;;3.17;0.90;;;;;;;41.13;12.40;98753.56;4965977;28;20037;-73
2023/07/22 11:09:36;;;;;;;1.42;0.70;;;;;;;38.68;14.29;98737.00;4993742;28;20499;-73
2023/07/22 11:12:12;;;;;;;1.52;0.80;;;;;;;38.05;14.54;98750.19;4961583;28;20053;-73
2023/07/22 11:14:47;;;;;;;5.20;0.90;;;;;;;37.70;15.73;98754.03;4962365;28;20065;-72
2023/07/22 11:17:13;;;;;;;2.35;0.90;;;;;;;38.68;14.87;98762.00;4977112;28;20408;-72
2023/07/22 11:19:39;;;;;;;1.85;1.00;;;;;;;39.89;13.95;98766.81;4978267;28;20116;-73
2023/07/22 11:22:06;;;;;;;2.22;0.90;;;;;;;40.10;13.34;98773.53;4962374;28;20062;-72
2023/07/22 11:24:38;;;;;;;3.92;0.90;;;;;;;39.61;13.20;98782.97;4962125;28;20038;-73
2023/07/22 11:27:08;;;;;;;5.07;1.63;;;;;;;38.84;14.37;98784.16;4962644;28;20496;-73
2023/07/22 11:29:34;;;;;;;1.88;0.85;;;;;;;37.71;15.29;98767.53;5011760;28;20525;-73
2023/07/22 11:32:03;;;;;;;2.00;0.90;;;;;;;36.38;15.79;98764.41;4997314;28;20045;-73
2023/07/22 11:34:48;;;;;;;2.67;0.80;;;;;;;35.35;17.27;98767.63;4994500;28;20054;-73
2023/07/22 11:37:16;;;;;;;2.17;0.90;;;;;;;34.41;18.80;98772.28;4977837;28;20041;-72